Terminal Aerodrome Forecast
Issued by NWS

Home | Current Version | Previous Version | Text Only | Print | Product List | Glossary On
Versions: 1 2 3 4 5 6 7 8 9 10 11 12 13 14 15
352
FTPA31 PHFO 202343
TAFSTU
TAF
NSTU 202343Z 2100/2124 09011KT P6SM VCSH SCT015 BKN035 BKN100
     FM210900 06007KT P6SM VCSH SCT015 BKN040 BKN100=

USA.gov is the U.S. government's official web portal to all federal, state and local government web resources and services.